Terminal Aerodrome Forecast
Issued by NWS Omaha/Valley, NE

Home | Current Version | Previous Version | Graphics & Text | Print | Product List | Glossary On
Versions: 1 2 3 4 5 6 7 8 9 10 11 12 13 14 15 16 17 18 19 20 21 22 23 24 25 26 27 28 29 30 31 32 33 34 35 36
000
FTUS43 KOAX 300304 AAA
TAFOFK
TAF AMD
KOFK 300304Z 3003/3024 VRB03KT P6SM SCT250
     FM301000 VRB03KT P6SM SCT250
      TEMPO 3011/3013 5SM BR
     FM301600 01006KT P6SM SCT050
      TEMPO 3017/3020 BKN050=

USA.gov is the U.S. government's official web portal to all federal, state and local government web resources and services.